Antelope, California
Current Conditions -  °F | °C
As of 9:45 PM on Wednesday 22 Oct 2014 (Local Time) from KMHR Reporting Station
Scattered Clouds Scattered Clouds  
Wind Chill: 63°   Ceiling: Unl
Heat Index: 63°   Visibility: 10mi
Dew Point: 45°   Wind: 7mph
Humidity: 52%   Direction: 140°SE
Pressure: 30.03"   Gusts: NA
Location:  38.72°N, 121.37°W
Report Text: KMHR 230445Z 14006KT 10SM SCT150 17/07 A3003
Loading
Personal Weather Stations






























Interactive Weather Map
Tropical Storm Tracking
New forecast layout! Learn more

10-Day Weather Forecast

Advertisements
Track Severe Weather on mobile